sensor_id;sensor_type;location;lat;lon;timestamp;P1;durP1;ratioP1;P2;durP2;ratioP2
68178;SDS011;54998;42.656;23.382;2022-12-13T00:01:25;6.20;;;2.70;;
68178;SDS011;54998;42.656;23.382;2022-12-13T00:03:52;3.67;;;2.10;;
68178;SDS011;54998;42.656;23.382;2022-12-13T00:06:21;5.15;;;2.13;;
68178;SDS011;54998;42.656;23.382;2022-12-13T00:08:47;4.65;;;1.95;;
68178;SDS011;54998;42.656;23.382;2022-12-13T00:11:13;7.43;;;3.30;;
68178;SDS011;54998;42.656;23.382;2022-12-13T00:13:39;6.72;;;2.70;;
68178;SDS011;54998;42.656;23.382;2022-12-13T00:16:06;6.97;;;3.10;;
68178;SDS011;54998;42.656;23.382;2022-12-13T00:18:36;4.65;;;2.00;;
68178;SDS011;54998;42.656;23.382;2022-12-13T00:21:08;9.82;;;3.35;;
68178;SDS011;54998;42.656;23.382;2022-12-13T00:23:37;5.40;;;3.25;;
68178;SDS011;54998;42.656;23.382;2022-12-13T00:26:03;6.45;;;2.20;;
68178;SDS011;54998;42.656;23.382;2022-12-13T00:28:34;8.57;;;3.45;;
68178;SDS011;54998;42.656;23.382;2022-12-13T00:30:59;7.35;;;2.20;;
68178;SDS011;54998;42.656;23.382;2022-12-13T00:33:26;10.35;;;4.10;;
68178;SDS011;54998;42.656;23.382;2022-12-13T00:35:52;5.38;;;2.97;;
68178;SDS011;54998;42.656;23.382;2022-12-13T00:38:17;9.15;;;2.90;;
68178;SDS011;54998;42.656;23.382;2022-12-13T00:40:43;6.28;;;2.33;;
68178;SDS011;54998;42.656;23.382;2022-12-13T00:43:09;8.07;;;2.75;;
68178;SDS011;54998;42.656;23.382;2022-12-13T00:45:34;4.55;;;2.20;;
68178;SDS011;54998;42.656;23.382;2022-12-13T00:47:59;5.13;;;2.58;;
68178;SDS011;54998;42.656;23.382;2022-12-13T00:50:25;10.27;;;4.07;;
68178;SDS011;54998;42.656;23.382;2022-12-13T00:52:50;7.22;;;2.92;;
68178;SDS011;54998;42.656;23.382;2022-12-13T00:55:16;6.03;;;2.63;;
68178;SDS011;54998;42.656;23.382;2022-12-13T00:57:41;8.70;;;2.70;;
68178;SDS011;54998;42.656;23.382;2022-12-13T01:00:07;9.45;;;3.47;;
68178;SDS011;54998;42.656;23.382;2022-12-13T01:02:33;3.88;;;2.22;;
68178;SDS011;54998;42.656;23.382;2022-12-13T01:04:58;5.85;;;2.80;;
68178;SDS011;54998;42.656;23.382;2022-12-13T01:07:24;4.53;;;2.38;;
68178;SDS011;54998;42.656;23.382;2022-12-13T01:09:49;6.30;;;2.88;;
68178;SDS011;54998;42.656;23.382;2022-12-13T01:12:15;8.02;;;3.72;;
68178;SDS011;54998;42.656;23.382;2022-12-13T01:14:41;6.30;;;2.63;;
68178;SDS011;54998;42.656;23.382;2022-12-13T01:17:06;4.35;;;2.08;;
68178;SDS011;54998;42.656;23.382;2022-12-13T01:19:32;7.35;;;2.40;;
68178;SDS011;54998;42.656;23.382;2022-12-13T01:22:00;10.05;;;4.97;;
68178;SDS011;54998;42.656;23.382;2022-12-13T01:24:28;9.13;;;4.45;;
68178;SDS011;54998;42.656;23.382;2022-12-13T01:26:54;6.28;;;2.85;;
68178;SDS011;54998;42.656;23.382;2022-12-13T01:29:20;7.63;;;3.53;;
68178;SDS011;54998;42.656;23.382;2022-12-13T01:31:46;8.00;;;3.50;;
68178;SDS011;54998;42.656;23.382;2022-12-13T01:34:14;7.93;;;3.35;;
68178;SDS011;54998;42.656;23.382;2022-12-13T01:36:43;7.35;;;3.10;;
68178;SDS011;54998;42.656;23.382;2022-12-13T01:39:12;11.10;;;4.38;;
68178;SDS011;54998;42.656;23.382;2022-12-13T01:41:39;10.80;;;5.00;;
68178;SDS011;54998;42.656;23.382;2022-12-13T01:44:06;9.30;;;4.15;;
68178;SDS011;54998;42.656;23.382;2022-12-13T01:47:09;8.45;;;3.28;;
68178;SDS011;54998;42.656;23.382;2022-12-13T01:49:35;11.77;;;4.07;;
68178;SDS011;54998;42.656;23.382;2022-12-13T01:52:02;9.85;;;3.67;;
68178;SDS011;54998;42.656;23.382;2022-12-13T01:54:33;10.25;;;4.13;;
68178;SDS011;54998;42.656;23.382;2022-12-13T01:57:05;10.00;;;4.43;;
68178;SDS011;54998;42.656;23.382;2022-12-13T01:59:36;5.28;;;2.40;;
68178;SDS011;54998;42.656;23.382;2022-12-13T02:02:03;6.15;;;2.53;;
68178;SDS011;54998;42.656;23.382;2022-12-13T02:04:35;7.43;;;3.05;;
68178;SDS011;54998;42.656;23.382;2022-12-13T02:07:06;9.25;;;3.95;;
68178;SDS011;54998;42.656;23.382;2022-12-13T02:09:33;12.82;;;4.65;;
68178;SDS011;54998;42.656;23.382;2022-12-13T02:14:26;9.63;;;4.07;;
68178;SDS011;54998;42.656;23.382;2022-12-13T02:17:07;8.57;;;3.83;;
68178;SDS011;54998;42.656;23.382;2022-12-13T02:35:59;12.32;;;5.15;;
68178;SDS011;54998;42.656;23.382;2022-12-13T02:38:35;13.13;;;5.07;;
68178;SDS011;54998;42.656;23.382;2022-12-13T02:41:16;14.43;;;5.30;;
68178;SDS011;54998;42.656;23.382;2022-12-13T02:46:20;9.52;;;4.15;;
68178;SDS011;54998;42.656;23.382;2022-12-13T02:48:47;9.23;;;4.53;;
68178;SDS011;54998;42.656;23.382;2022-12-13T02:51:16;10.23;;;3.97;;
68178;SDS011;54998;42.656;23.382;2022-12-13T02:53:43;12.30;;;5.70;;
68178;SDS011;54998;42.656;23.382;2022-12-13T02:56:10;8.23;;;3.55;;
68178;SDS011;54998;42.656;23.382;2022-12-13T02:58:36;6.30;;;2.95;;
68178;SDS011;54998;42.656;23.382;2022-12-13T03:07:28;7.60;;;2.90;;
68178;SDS011;54998;42.656;23.382;2022-12-13T03:10:09;8.05;;;4.13;;
68178;SDS011;54998;42.656;23.382;2022-12-13T03:13:01;13.02;;;5.50;;
68178;SDS011;54998;42.656;23.382;2022-12-13T03:18:22;12.20;;;5.47;;
68178;SDS011;54998;42.656;23.382;2022-12-13T03:20:51;8.13;;;3.65;;
68178;SDS011;54998;42.656;23.382;2022-12-13T03:23:20;11.05;;;4.68;;
68178;SDS011;54998;42.656;23.382;2022-12-13T03:25:48;11.80;;;5.22;;
68178;SDS011;54998;42.656;23.382;2022-12-13T03:28:17;7.82;;;3.22;;
68178;SDS011;54998;42.656;23.382;2022-12-13T03:30:42;6.05;;;2.60;;
68178;SDS011;54998;42.656;23.382;2022-12-13T03:33:08;8.25;;;3.92;;
68178;SDS011;54998;42.656;23.382;2022-12-13T03:35:33;7.53;;;3.83;;
68178;SDS011;54998;42.656;23.382;2022-12-13T03:38:00;8.07;;;4.05;;
68178;SDS011;54998;42.656;23.382;2022-12-13T03:40:26;12.63;;;4.82;;
68178;SDS011;54998;42.656;23.382;2022-12-13T03:42:53;7.97;;;3.45;;
68178;SDS011;54998;42.656;23.382;2022-12-13T03:45:19;11.20;;;4.32;;
68178;SDS011;54998;42.656;23.382;2022-12-13T03:47:45;6.82;;;4.18;;
68178;SDS011;54998;42.656;23.382;2022-12-13T03:50:10;7.75;;;3.85;;
68178;SDS011;54998;42.656;23.382;2022-12-13T03:52:36;14.15;;;5.22;;
68178;SDS011;54998;42.656;23.382;2022-12-13T03:55:01;5.32;;;2.60;;
68178;SDS011;54998;42.656;23.382;2022-12-13T03:57:27;10.48;;;4.18;;
68178;SDS011;54998;42.656;23.382;2022-12-13T03:59:53;5.20;;;3.25;;
68178;SDS011;54998;42.656;23.382;2022-12-13T04:02:18;12.60;;;5.68;;
68178;SDS011;54998;42.656;23.382;2022-12-13T04:04:44;13.27;;;5.28;;
68178;SDS011;54998;42.656;23.382;2022-12-13T04:07:09;11.82;;;5.50;;
68178;SDS011;54998;42.656;23.382;2022-12-13T04:09:34;12.02;;;5.40;;
68178;SDS011;54998;42.656;23.382;2022-12-13T04:12:00;15.32;;;5.20;;
68178;SDS011;54998;42.656;23.382;2022-12-13T04:14:44;9.05;;;4.32;;
68178;SDS011;54998;42.656;23.382;2022-12-13T04:17:09;11.07;;;4.80;;
68178;SDS011;54998;42.656;23.382;2022-12-13T04:19:35;15.40;;;6.00;;
68178;SDS011;54998;42.656;23.382;2022-12-13T04:22:00;11.65;;;4.35;;
68178;SDS011;54998;42.656;23.382;2022-12-13T04:24:25;13.18;;;5.75;;
68178;SDS011;54998;42.656;23.382;2022-12-13T04:26:51;18.35;;;6.55;;
68178;SDS011;54998;42.656;23.382;2022-12-13T04:29:16;12.93;;;4.30;;
68178;SDS011;54998;42.656;23.382;2022-12-13T04:31:42;15.50;;;5.75;;
68178;SDS011;54998;42.656;23.382;2022-12-13T04:34:07;11.70;;;5.30;;
68178;SDS011;54998;42.656;23.382;2022-12-13T04:36:32;16.30;;;5.40;;
68178;SDS011;54998;42.656;23.382;2022-12-13T04:38:59;14.55;;;5.93;;
68178;SDS011;54998;42.656;23.382;2022-12-13T04:41:28;12.95;;;4.82;;
68178;SDS011;54998;42.656;23.382;2022-12-13T04:43:58;15.65;;;6.60;;
68178;SDS011;54998;42.656;23.382;2022-12-13T04:46:24;10.65;;;4.72;;
68178;SDS011;54998;42.656;23.382;2022-12-13T04:48:50;16.70;;;6.15;;
68178;SDS011;54998;42.656;23.382;2022-12-13T04:51:15;10.05;;;4.75;;
68178;SDS011;54998;42.656;23.382;2022-12-13T04:53:40;9.48;;;4.50;;
68178;SDS011;54998;42.656;23.382;2022-12-13T04:56:06;11.10;;;4.90;;
68178;SDS011;54998;42.656;23.382;2022-12-13T04:58:32;18.08;;;7.22;;
68178;SDS011;54998;42.656;23.382;2022-12-13T05:00:57;14.60;;;6.25;;
68178;SDS011;54998;42.656;23.382;2022-12-13T05:03:23;15.95;;;6.50;;
68178;SDS011;54998;42.656;23.382;2022-12-13T05:05:48;16.75;;;7.60;;
68178;SDS011;54998;42.656;23.382;2022-12-13T05:08:14;15.02;;;6.88;;
68178;SDS011;54998;42.656;23.382;2022-12-13T05:10:39;14.95;;;6.10;;
68178;SDS011;54998;42.656;23.382;2022-12-13T05:13:05;7.25;;;4.20;;
68178;SDS011;54998;42.656;23.382;2022-12-13T05:15:31;14.80;;;6.15;;
68178;SDS011;54998;42.656;23.382;2022-12-13T05:18:01;13.43;;;4.85;;
68178;SDS011;54998;42.656;23.382;2022-12-13T05:20:27;6.38;;;2.60;;
68178;SDS011;54998;42.656;23.382;2022-12-13T05:22:54;8.40;;;4.28;;
68178;SDS011;54998;42.656;23.382;2022-12-13T05:25:21;15.18;;;6.05;;
68178;SDS011;54998;42.656;23.382;2022-12-13T05:27:47;13.52;;;5.35;;
68178;SDS011;54998;42.656;23.382;2022-12-13T05:30:13;13.48;;;5.15;;
68178;SDS011;54998;42.656;23.382;2022-12-13T05:32:39;8.13;;;3.25;;
68178;SDS011;54998;42.656;23.382;2022-12-13T05:35:04;7.38;;;4.38;;
68178;SDS011;54998;42.656;23.382;2022-12-13T05:37:30;10.95;;;4.82;;
68178;SDS011;54998;42.656;23.382;2022-12-13T05:39:55;10.63;;;3.67;;
68178;SDS011;54998;42.656;23.382;2022-12-13T05:42:21;14.15;;;5.18;;
68178;SDS011;54998;42.656;23.382;2022-12-13T05:44:46;7.05;;;3.00;;
68178;SDS011;54998;42.656;23.382;2022-12-13T05:47:12;9.38;;;3.83;;
68178;SDS011;54998;42.656;23.382;2022-12-13T05:49:37;5.63;;;3.25;;
68178;SDS011;54998;42.656;23.382;2022-12-13T05:52:03;13.77;;;4.65;;
68178;SDS011;54998;42.656;23.382;2022-12-13T05:54:28;6.65;;;3.33;;
68178;SDS011;54998;42.656;23.382;2022-12-13T05:56:53;7.80;;;3.35;;
68178;SDS011;54998;42.656;23.382;2022-12-13T05:59:19;13.68;;;5.70;;
68178;SDS011;54998;42.656;23.382;2022-12-13T06:01:44;13.45;;;5.32;;
68178;SDS011;54998;42.656;23.382;2022-12-13T06:04:10;12.90;;;6.68;;
68178;SDS011;54998;42.656;23.382;2022-12-13T06:06:36;12.32;;;4.63;;
68178;SDS011;54998;42.656;23.382;2022-12-13T06:09:02;8.45;;;3.58;;
68178;SDS011;54998;42.656;23.382;2022-12-13T06:11:27;18.90;;;6.75;;
68178;SDS011;54998;42.656;23.382;2022-12-13T06:13:53;14.10;;;5.10;;
68178;SDS011;54998;42.656;23.382;2022-12-13T06:16:18;11.77;;;4.90;;
68178;SDS011;54998;42.656;23.382;2022-12-13T06:18:44;10.60;;;3.95;;
68178;SDS011;54998;42.656;23.382;2022-12-13T06:21:09;13.82;;;5.95;;
68178;SDS011;54998;42.656;23.382;2022-12-13T06:23:35;12.02;;;4.78;;
68178;SDS011;54998;42.656;23.382;2022-12-13T06:26:01;10.30;;;3.97;;
68178;SDS011;54998;42.656;23.382;2022-12-13T06:28:28;11.25;;;4.57;;
68178;SDS011;54998;42.656;23.382;2022-12-13T06:30:53;14.98;;;6.35;;
68178;SDS011;54998;42.656;23.382;2022-12-13T06:33:18;15.55;;;6.38;;
68178;SDS011;54998;42.656;23.382;2022-12-13T06:35:44;15.77;;;4.93;;
68178;SDS011;54998;42.656;23.382;2022-12-13T06:38:10;15.85;;;5.60;;
68178;SDS011;54998;42.656;23.382;2022-12-13T06:40:37;14.48;;;6.15;;
68178;SDS011;54998;42.656;23.382;2022-12-13T06:43:03;11.60;;;5.63;;
68178;SDS011;54998;42.656;23.382;2022-12-13T06:45:28;15.82;;;6.07;;
68178;SDS011;54998;42.656;23.382;2022-12-13T06:47:54;15.73;;;6.38;;
68178;SDS011;54998;42.656;23.382;2022-12-13T06:50:20;14.55;;;6.90;;
68178;SDS011;54998;42.656;23.382;2022-12-13T06:52:45;11.18;;;4.88;;
68178;SDS011;54998;42.656;23.382;2022-12-13T06:55:11;20.02;;;8.25;;
68178;SDS011;54998;42.656;23.382;2022-12-13T06:57:36;17.83;;;6.57;;
68178;SDS011;54998;42.656;23.382;2022-12-13T07:00:02;10.77;;;5.00;;
68178;SDS011;54998;42.656;23.382;2022-12-13T07:02:29;12.75;;;6.47;;
68178;SDS011;54998;42.656;23.382;2022-12-13T07:04:55;6.25;;;3.40;;
68178;SDS011;54998;42.656;23.382;2022-12-13T07:07:21;7.25;;;3.67;;
68178;SDS011;54998;42.656;23.382;2022-12-13T07:09:47;10.75;;;4.97;;
68178;SDS011;54998;42.656;23.382;2022-12-13T07:12:12;10.93;;;4.70;;
68178;SDS011;54998;42.656;23.382;2022-12-13T07:14:37;13.82;;;5.63;;
68178;SDS011;54998;42.656;23.382;2022-12-13T07:17:03;10.75;;;4.70;;
68178;SDS011;54998;42.656;23.382;2022-12-13T07:19:28;16.25;;;6.80;;
68178;SDS011;54998;42.656;23.382;2022-12-13T07:21:55;10.65;;;5.07;;
68178;SDS011;54998;42.656;23.382;2022-12-13T07:24:20;10.80;;;5.03;;
68178;SDS011;54998;42.656;23.382;2022-12-13T07:26:46;9.90;;;4.20;;
68178;SDS011;54998;42.656;23.382;2022-12-13T07:29:11;10.98;;;4.90;;
68178;SDS011;54998;42.656;23.382;2022-12-13T07:31:37;13.43;;;6.47;;
68178;SDS011;54998;42.656;23.382;2022-12-13T07:34:02;14.57;;;6.28;;
68178;SDS011;54998;42.656;23.382;2022-12-13T07:36:28;14.55;;;6.03;;
68178;SDS011;54998;42.656;23.382;2022-12-13T07:38:54;10.98;;;4.72;;
68178;SDS011;54998;42.656;23.382;2022-12-13T07:41:21;6.25;;;3.13;;
68178;SDS011;54998;42.656;23.382;2022-12-13T07:43:47;12.90;;;5.90;;
68178;SDS011;54998;42.656;23.382;2022-12-13T07:46:12;6.82;;;3.50;;
68178;SDS011;54998;42.656;23.382;2022-12-13T07:48:38;13.95;;;5.82;;
68178;SDS011;54998;42.656;23.382;2022-12-13T07:51:05;10.13;;;4.72;;
68178;SDS011;54998;42.656;23.382;2022-12-13T07:53:32;13.02;;;5.10;;
68178;SDS011;54998;42.656;23.382;2022-12-13T07:56:01;14.48;;;5.32;;
68178;SDS011;54998;42.656;23.382;2022-12-13T07:58:30;9.88;;;4.93;;
68178;SDS011;54998;42.656;23.382;2022-12-13T08:01:07;16.67;;;6.32;;
68178;SDS011;54998;42.656;23.382;2022-12-13T08:03:33;11.82;;;5.30;;
68178;SDS011;54998;42.656;23.382;2022-12-13T08:06:01;12.95;;;5.88;;
68178;SDS011;54998;42.656;23.382;2022-12-13T08:08:32;15.35;;;6.55;;
68178;SDS011;54998;42.656;23.382;2022-12-13T08:11:04;14.43;;;6.72;;
68178;SDS011;54998;42.656;23.382;2022-12-13T08:13:33;13.63;;;5.75;;
68178;SDS011;54998;42.656;23.382;2022-12-13T08:16:02;13.65;;;5.82;;
68178;SDS011;54998;42.656;23.382;2022-12-13T08:18:30;13.68;;;6.30;;
68178;SDS011;54998;42.656;23.382;2022-12-13T08:21:00;8.02;;;3.67;;
68178;SDS011;54998;42.656;23.382;2022-12-13T08:23:28;8.93;;;4.55;;
68178;SDS011;54998;42.656;23.382;2022-12-13T08:25:55;10.13;;;4.97;;
68178;SDS011;54998;42.656;23.382;2022-12-13T08:28:21;9.77;;;5.35;;
68178;SDS011;54998;42.656;23.382;2022-12-13T08:30:47;11.70;;;5.40;;
68178;SDS011;54998;42.656;23.382;2022-12-13T08:33:14;8.15;;;4.50;;
68178;SDS011;54998;42.656;23.382;2022-12-13T08:35:39;12.88;;;5.15;;
68178;SDS011;54998;42.656;23.382;2022-12-13T08:38:05;7.88;;;4.68;;
68178;SDS011;54998;42.656;23.382;2022-12-13T08:40:30;12.45;;;5.88;;
68178;SDS011;54998;42.656;23.382;2022-12-13T08:42:56;12.35;;;5.50;;
68178;SDS011;54998;42.656;23.382;2022-12-13T08:45:22;10.43;;;4.80;;
68178;SDS011;54998;42.656;23.382;2022-12-13T08:47:51;11.10;;;5.25;;
68178;SDS011;54998;42.656;23.382;2022-12-13T08:50:17;11.75;;;5.47;;
68178;SDS011;54998;42.656;23.382;2022-12-13T08:52:43;9.70;;;4.88;;
68178;SDS011;54998;42.656;23.382;2022-12-13T08:55:12;9.57;;;4.93;;
68178;SDS011;54998;42.656;23.382;2022-12-13T08:57:39;8.60;;;3.40;;
68178;SDS011;54998;42.656;23.382;2022-12-13T09:00:06;5.72;;;2.75;;
68178;SDS011;54998;42.656;23.382;2022-12-13T09:02:33;8.50;;;4.07;;
68178;SDS011;54998;42.656;23.382;2022-12-13T09:04:58;7.93;;;4.28;;
68178;SDS011;54998;42.656;23.382;2022-12-13T09:07:24;7.68;;;3.88;;
68178;SDS011;54998;42.656;23.382;2022-12-13T09:09:49;9.40;;;4.45;;
68178;SDS011;54998;42.656;23.382;2022-12-13T09:12:15;8.82;;;4.55;;
68178;SDS011;54998;42.656;23.382;2022-12-13T09:14:40;9.88;;;4.95;;
68178;SDS011;54998;42.656;23.382;2022-12-13T09:17:06;9.10;;;3.78;;
68178;SDS011;54998;42.656;23.382;2022-12-13T09:19:32;8.90;;;4.70;;
68178;SDS011;54998;42.656;23.382;2022-12-13T09:21:57;11.23;;;4.38;;
68178;SDS011;54998;42.656;23.382;2022-12-13T09:24:22;8.50;;;4.20;;
68178;SDS011;54998;42.656;23.382;2022-12-13T09:26:48;8.77;;;4.70;;
68178;SDS011;54998;42.656;23.382;2022-12-13T09:29:13;8.13;;;4.25;;
68178;SDS011;54998;42.656;23.382;2022-12-13T09:31:40;7.80;;;4.45;;
68178;SDS011;54998;42.656;23.382;2022-12-13T09:34:06;9.10;;;4.78;;
68178;SDS011;54998;42.656;23.382;2022-12-13T09:36:32;7.30;;;4.20;;
68178;SDS011;54998;42.656;23.382;2022-12-13T09:38:58;11.63;;;4.50;;
68178;SDS011;54998;42.656;23.382;2022-12-13T09:41:24;10.43;;;5.10;;
68178;SDS011;54998;42.656;23.382;2022-12-13T09:44:13;10.65;;;5.35;;
68178;SDS011;54998;42.656;23.382;2022-12-13T09:46:45;12.98;;;5.63;;
68178;SDS011;54998;42.656;23.382;2022-12-13T09:49:15;12.32;;;5.28;;
68178;SDS011;54998;42.656;23.382;2022-12-13T09:51:57;10.65;;;5.38;;
68178;SDS011;54998;42.656;23.382;2022-12-13T09:54:24;13.02;;;5.70;;
68178;SDS011;54998;42.656;23.382;2022-12-13T09:56:51;9.45;;;5.18;;
68178;SDS011;54998;42.656;23.382;2022-12-13T09:59:29;11.23;;;6.05;;
68178;SDS011;54998;42.656;23.382;2022-12-13T10:02:01;10.20;;;5.28;;
68178;SDS011;54998;42.656;23.382;2022-12-13T10:04:37;9.85;;;5.40;;
68178;SDS011;54998;42.656;23.382;2022-12-13T10:07:04;10.98;;;6.25;;
68178;SDS011;54998;42.656;23.382;2022-12-13T10:09:38;11.20;;;5.28;;
68178;SDS011;54998;42.656;23.382;2022-12-13T10:12:03;10.93;;;6.18;;
68178;SDS011;54998;42.656;23.382;2022-12-13T10:14:30;11.95;;;6.80;;
68178;SDS011;54998;42.656;23.382;2022-12-13T10:17:04;13.05;;;6.57;;
68178;SDS011;54998;42.656;23.382;2022-12-13T10:19:33;14.15;;;7.20;;
68178;SDS011;54998;42.656;23.382;2022-12-13T10:22:01;12.60;;;6.50;;
68178;SDS011;54998;42.656;23.382;2022-12-13T10:27:18;12.25;;;6.88;;
68178;SDS011;54998;42.656;23.382;2022-12-13T10:34:48;12.00;;;6.68;;
68178;SDS011;54998;42.656;23.382;2022-12-13T10:39:48;13.80;;;7.20;;
68178;SDS011;54998;42.656;23.382;2022-12-13T10:42:15;14.90;;;7.50;;
68178;SDS011;54998;42.656;23.382;2022-12-13T10:44:43;13.73;;;7.18;;
68178;SDS011;54998;42.656;23.382;2022-12-13T10:50:08;13.32;;;7.28;;
68178;SDS011;54998;42.656;23.382;2022-12-13T10:55:03;13.75;;;8.75;;
68178;SDS011;54998;42.656;23.382;2022-12-13T10:57:32;14.77;;;6.70;;
68178;SDS011;54998;42.656;23.382;2022-12-13T10:59:58;14.10;;;7.18;;
68178;SDS011;54998;42.656;23.382;2022-12-13T11:04:48;14.23;;;6.90;;
68178;SDS011;54998;42.656;23.382;2022-12-13T11:09:55;13.52;;;6.85;;
68178;SDS011;54998;42.656;23.382;2022-12-13T11:12:22;12.60;;;6.63;;
68178;SDS011;54998;42.656;23.382;2022-12-13T11:14:56;14.90;;;7.18;;
68178;SDS011;54998;42.656;23.382;2022-12-13T11:17:26;13.18;;;7.05;;
68178;SDS011;54998;42.656;23.382;2022-12-13T11:19:59;17.23;;;7.97;;
68178;SDS011;54998;42.656;23.382;2022-12-13T11:22:29;13.43;;;7.78;;
68178;SDS011;54998;42.656;23.382;2022-12-13T11:24:59;13.68;;;6.70;;
68178;SDS011;54998;42.656;23.382;2022-12-13T11:40:24;13.70;;;7.13;;
68178;SDS011;54998;42.656;23.382;2022-12-13T11:45:54;10.23;;;5.55;;
68178;SDS011;54998;42.656;23.382;2022-12-13T11:48:35;11.73;;;6.35;;
68178;SDS011;54998;42.656;23.382;2022-12-13T11:51:08;15.70;;;8.23;;
68178;SDS011;54998;42.656;23.382;2022-12-13T11:53:51;13.52;;;7.25;;
68178;SDS011;54998;42.656;23.382;2022-12-13T11:56:30;12.25;;;7.05;;
68178;SDS011;54998;42.656;23.382;2022-12-13T11:59:07;13.50;;;7.32;;
68178;SDS011;54998;42.656;23.382;2022-12-13T12:01:42;13.38;;;6.80;;
68178;SDS011;54998;42.656;23.382;2022-12-13T12:06:53;23.63;;;10.45;;
68178;SDS011;54998;42.656;23.382;2022-12-13T12:09:43;21.92;;;11.70;;
68178;SDS011;54998;42.656;23.382;2022-12-13T12:12:25;23.70;;;11.13;;
68178;SDS011;54998;42.656;23.382;2022-12-13T12:15:09;22.38;;;10.70;;
68178;SDS011;54998;42.656;23.382;2022-12-13T12:17:36;21.25;;;10.20;;
68178;SDS011;54998;42.656;23.382;2022-12-13T12:20:02;22.85;;;10.15;;
68178;SDS011;54998;42.656;23.382;2022-12-13T12:36:44;27.00;;;10.25;;
68178;SDS011;54998;42.656;23.382;2022-12-13T12:42:29;25.45;;;10.38;;
68178;SDS011;54998;42.656;23.382;2022-12-13T12:53:42;21.02;;;9.85;;
68178;SDS011;54998;42.656;23.382;2022-12-13T12:59:27;17.08;;;7.30;;
68178;SDS011;54998;42.656;23.382;2022-12-13T13:02:04;16.52;;;7.90;;
68178;SDS011;54998;42.656;23.382;2022-12-13T13:04:42;17.10;;;7.65;;
68178;SDS011;54998;42.656;23.382;2022-12-13T13:10:05;17.50;;;6.35;;
68178;SDS011;54998;42.656;23.382;2022-12-13T13:15:14;16.95;;;6.78;;
68178;SDS011;54998;42.656;23.382;2022-12-13T13:17:52;14.02;;;6.72;;
68178;SDS011;54998;42.656;23.382;2022-12-13T13:20:21;15.27;;;7.03;;
68178;SDS011;54998;42.656;23.382;2022-12-13T13:22:49;15.13;;;7.32;;
68178;SDS011;54998;42.656;23.382;2022-12-13T13:27:58;11.73;;;5.63;;
68178;SDS011;54998;42.656;23.382;2022-12-13T13:30:30;14.43;;;6.57;;
68178;SDS011;54998;42.656;23.382;2022-12-13T13:32:57;14.27;;;6.20;;
68178;SDS011;54998;42.656;23.382;2022-12-13T13:35:44;17.08;;;8.20;;
68178;SDS011;54998;42.656;23.382;2022-12-13T13:40:40;26.40;;;11.48;;
68178;SDS011;54998;42.656;23.382;2022-12-13T13:45:53;32.95;;;15.13;;
68178;SDS011;54998;42.656;23.382;2022-12-13T13:54:44;26.90;;;13.27;;
68178;SDS011;54998;42.656;23.382;2022-12-13T14:05:52;28.73;;;12.38;;
68178;SDS011;54998;42.656;23.382;2022-12-13T14:24:16;31.70;;;13.38;;
68178;SDS011;54998;42.656;23.382;2022-12-13T14:29:12;29.85;;;13.10;;
68178;SDS011;54998;42.656;23.382;2022-12-13T14:31:43;34.28;;;13.80;;
68178;SDS011;54998;42.656;23.382;2022-12-13T14:37:00;28.52;;;12.77;;
68178;SDS011;54998;42.656;23.382;2022-12-13T14:41:56;26.35;;;10.85;;
68178;SDS011;54998;42.656;23.382;2022-12-13T14:44:24;33.22;;;13.38;;
68178;SDS011;54998;42.656;23.382;2022-12-13T14:46:59;31.17;;;12.77;;
68178;SDS011;54998;42.656;23.382;2022-12-13T14:49:26;31.85;;;14.18;;
68178;SDS011;54998;42.656;23.382;2022-12-13T14:52:04;24.67;;;12.15;;
68178;SDS011;54998;42.656;23.382;2022-12-13T14:55:19;29.02;;;11.48;;
68178;SDS011;54998;42.656;23.382;2022-12-13T14:57:24;29.50;;;12.95;;
68178;SDS011;54998;42.656;23.382;2022-12-13T14:59:51;26.98;;;12.88;;
68178;SDS011;54998;42.656;23.382;2022-12-13T15:02:29;27.00;;;11.95;;
68178;SDS011;54998;42.656;23.382;2022-12-13T15:04:57;29.50;;;11.35;;
68178;SDS011;54998;42.656;23.382;2022-12-13T15:09:52;26.98;;;10.80;;
68178;SDS011;54998;42.656;23.382;2022-12-13T15:12:25;26.90;;;11.35;;
68178;SDS011;54998;42.656;23.382;2022-12-13T15:14:55;30.33;;;12.40;;
68178;SDS011;54998;42.656;23.382;2022-12-13T15:17:34;34.17;;;12.20;;
68178;SDS011;54998;42.656;23.382;2022-12-13T15:23:08;34.25;;;13.73;;
68178;SDS011;54998;42.656;23.382;2022-12-13T15:25:42;30.40;;;13.13;;
68178;SDS011;54998;42.656;23.382;2022-12-13T15:28:09;32.60;;;14.40;;
68178;SDS011;54998;42.656;23.382;2022-12-13T15:30:38;32.28;;;13.60;;
68178;SDS011;54998;42.656;23.382;2022-12-13T15:33:05;34.60;;;16.35;;
68178;SDS011;54998;42.656;23.382;2022-12-13T15:35:30;31.27;;;13.65;;
68178;SDS011;54998;42.656;23.382;2022-12-13T15:37:56;33.95;;;14.48;;
68178;SDS011;54998;42.656;23.382;2022-12-13T15:40:21;30.92;;;13.88;;
68178;SDS011;54998;42.656;23.382;2022-12-13T15:42:47;30.92;;;14.18;;
68178;SDS011;54998;42.656;23.382;2022-12-13T15:45:22;31.95;;;13.50;;
68178;SDS011;54998;42.656;23.382;2022-12-13T15:47:49;30.77;;;13.63;;
68178;SDS011;54998;42.656;23.382;2022-12-13T15:53:28;34.92;;;14.30;;
68178;SDS011;54998;42.656;23.382;2022-12-13T15:55:53;33.25;;;13.52;;
68178;SDS011;54998;42.656;23.382;2022-12-13T15:58:24;37.40;;;16.35;;
68178;SDS011;54998;42.656;23.382;2022-12-13T16:00:51;35.20;;;14.40;;
68178;SDS011;54998;42.656;23.382;2022-12-13T16:03:20;32.55;;;14.00;;
68178;SDS011;54998;42.656;23.382;2022-12-13T16:05:49;32.60;;;13.55;;
68178;SDS011;54998;42.656;23.382;2022-12-13T16:08:24;31.83;;;12.63;;
68178;SDS011;54998;42.656;23.382;2022-12-13T16:10:54;29.02;;;12.05;;
68178;SDS011;54998;42.656;23.382;2022-12-13T16:13:27;28.50;;;11.05;;
68178;SDS011;54998;42.656;23.382;2022-12-13T16:15:59;27.08;;;13.65;;
68178;SDS011;54998;42.656;23.382;2022-12-13T16:18:30;27.25;;;12.13;;
68178;SDS011;54998;42.656;23.382;2022-12-13T16:20:57;35.67;;;14.43;;
68178;SDS011;54998;42.656;23.382;2022-12-13T16:23:23;36.90;;;14.45;;
68178;SDS011;54998;42.656;23.382;2022-12-13T16:25:49;31.25;;;13.35;;
68178;SDS011;54998;42.656;23.382;2022-12-13T16:28:14;35.47;;;14.13;;
68178;SDS011;54998;42.656;23.382;2022-12-13T16:33:16;31.08;;;12.63;;
68178;SDS011;54998;42.656;23.382;2022-12-13T16:35:41;31.27;;;13.68;;
68178;SDS011;54998;42.656;23.382;2022-12-13T16:38:10;32.53;;;13.88;;
68178;SDS011;54998;42.656;23.382;2022-12-13T16:40:37;32.38;;;13.93;;
68178;SDS011;54998;42.656;23.382;2022-12-13T16:43:03;34.22;;;14.38;;
68178;SDS011;54998;42.656;23.382;2022-12-13T16:45:43;37.60;;;14.85;;
68178;SDS011;54998;42.656;23.382;2022-12-13T16:48:12;31.77;;;13.30;;
68178;SDS011;54998;42.656;23.382;2022-12-13T16:50:41;31.40;;;14.20;;
68178;SDS011;54998;42.656;23.382;2022-12-13T16:53:08;37.45;;;15.73;;
68178;SDS011;54998;42.656;23.382;2022-12-13T16:55:34;36.63;;;16.25;;
68178;SDS011;54998;42.656;23.382;2022-12-13T16:58:00;38.90;;;16.20;;
68178;SDS011;54998;42.656;23.382;2022-12-13T17:00:28;43.42;;;17.92;;
68178;SDS011;54998;42.656;23.382;2022-12-13T17:02:54;39.70;;;16.85;;
68178;SDS011;54998;42.656;23.382;2022-12-13T17:05:21;26.60;;;11.70;;
68178;SDS011;54998;42.656;23.382;2022-12-13T17:07:47;22.60;;;10.05;;
68178;SDS011;54998;42.656;23.382;2022-12-13T17:10:12;24.65;;;10.95;;
68178;SDS011;54998;42.656;23.382;2022-12-13T17:12:38;26.48;;;11.70;;